createdAt,value
2022-08-26T00:01:57.174Z,77.33
2022-08-26T00:04:26.133Z,77.26
2022-08-26T00:06:55.078Z,77.02
2022-08-26T00:09:24.947Z,76.65
2022-08-26T00:11:54.321Z,77.28
2022-08-26T00:14:27.011Z,77.57
2022-08-26T00:16:55.171Z,77.68
2022-08-26T00:19:22.316Z,77.76
2022-08-26T00:21:50.154Z,77.30
2022-08-26T00:24:20.938Z,76.96
2022-08-26T00:26:49.113Z,77.09
2022-08-26T00:29:16.850Z,77.53
2022-08-26T00:31:45.396Z,77.87
2022-08-26T00:34:15.362Z,78.31
2022-08-26T00:36:43.590Z,78.32
2022-08-26T00:39:11.092Z,78.11
2022-08-26T00:41:41.048Z,77.74
2022-08-26T00:44:11.246Z,78.02
2022-08-26T00:46:50.566Z,78.72
2022-08-26T00:49:37.648Z,78.44
2022-08-26T00:52:11.989Z,78.64
2022-08-26T00:54:47.012Z,78.96
2022-08-26T00:57:18.646Z,78.97
2022-08-26T00:59:53.031Z,78.84
2022-08-26T01:02:21.651Z,78.65
2022-08-26T01:04:57.945Z,78.49
2022-08-26T01:07:30.205Z,78.30
2022-08-26T01:10:03.329Z,77.96
2022-08-26T01:12:36.068Z,77.99
2022-08-26T01:15:10.122Z,78.47
2022-08-26T01:17:39.643Z,78.50
2022-08-26T01:20:53.564Z,79.14
2022-08-26T01:23:31.761Z,78.88
2022-08-26T01:26:19.897Z,78.87
2022-08-26T01:28:51.723Z,78.51
2022-08-26T01:31:25.054Z,78.32
2022-08-26T01:34:16.163Z,78.51
2022-08-26T01:36:47.931Z,78.56
2022-08-26T01:39:18.885Z,78.57
2022-08-26T01:41:47.715Z,78.17
2022-08-26T01:44:27.808Z,78.40
2022-08-26T01:46:58.813Z,78.87
2022-08-26T01:49:28.138Z,78.63
2022-08-26T01:51:59.478Z,78.83
2022-08-26T01:54:26.818Z,79.17
2022-08-26T01:56:55.876Z,78.64
2022-08-26T01:59:24.576Z,78.66
2022-08-26T02:01:52.878Z,78.66
2022-08-26T02:04:30.931Z,78.53
2022-08-26T02:06:59.383Z,78.72
2022-08-26T02:09:26.814Z,78.91
2022-08-26T02:11:54.536Z,78.97
2022-08-26T02:14:28.120Z,79.37
2022-08-26T02:16:56.688Z,79.25
2022-08-26T02:19:31.862Z,78.92
2022-08-26T02:22:04.230Z,78.81
2022-08-26T02:24:56.536Z,79.11
2022-08-26T02:27:32.371Z,79.15
2022-08-26T02:30:15.067Z,78.99
2022-08-26T02:32:44.705Z,79.49
2022-08-26T02:35:18.169Z,79.45
2022-08-26T02:37:49.507Z,79.43
2022-08-26T02:40:22.698Z,79.30
2022-08-26T02:42:50.243Z,79.47
2022-08-26T02:45:23.232Z,79.21
2022-08-26T02:47:52.389Z,79.47
2022-08-26T02:50:20.502Z,79.63
2022-08-26T02:52:48.677Z,79.62
2022-08-26T02:55:16.707Z,79.38
2022-08-26T02:57:43.971Z,79.67
2022-08-26T03:00:14.868Z,79.53
2022-08-26T03:02:42.183Z,79.97
2022-08-26T03:05:10.926Z,79.02
2022-08-26T03:07:38.511Z,78.96
2022-08-26T03:10:08.691Z,79.70
2022-08-26T03:12:36.250Z,79.86
2022-08-26T03:15:16.416Z,79.57
2022-08-26T03:17:47.976Z,79.86
2022-08-26T03:20:17.465Z,79.85
2022-08-26T03:22:45.588Z,80.43
2022-08-26T03:25:16.575Z,80.24
2022-08-26T03:27:44.118Z,80.61
2022-08-26T03:30:32.436Z,80.13
2022-08-26T03:33:00.753Z,80.78
2022-08-26T03:35:28.574Z,80.61
2022-08-26T03:37:55.519Z,80.41
2022-08-26T03:40:23.182Z,80.41
2022-08-26T03:42:51.113Z,80.70
2022-08-26T03:45:19.780Z,80.49
2022-08-26T03:47:48.074Z,80.68
2022-08-26T03:50:23.030Z,80.56
2022-08-26T03:52:54.193Z,80.43
2022-08-26T03:55:26.033Z,80.32
2022-08-26T03:57:54.536Z,80.22
2022-08-26T04:00:22.376Z,80.16
2022-08-26T04:02:51.260Z,80.28
2022-08-26T04:05:23.197Z,80.68
2022-08-26T04:07:51.788Z,80.57
2022-08-26T04:10:26.453Z,80.37
2022-08-26T04:12:59.423Z,80.46
2022-08-26T04:15:27.265Z,80.30
2022-08-26T04:17:56.074Z,80.18
2022-08-26T04:20:25.620Z,80.93
2022-08-26T04:22:52.605Z,80.57
2022-08-26T04:25:20.655Z,80.80
2022-08-26T04:27:48.507Z,81.13
2022-08-26T04:30:16.572Z,80.86
2022-08-26T04:32:44.924Z,80.82
2022-08-26T04:35:11.946Z,80.38
2022-08-26T04:37:38.851Z,80.53
2022-08-26T04:40:11.197Z,80.60
2022-08-26T04:42:38.340Z,80.54
2022-08-26T04:45:10.130Z,80.67
2022-08-26T04:47:37.481Z,80.61
2022-08-26T04:50:06.946Z,80.91
2022-08-26T04:52:36.301Z,80.91
2022-08-26T04:55:04.446Z,80.47
2022-08-26T04:57:33.853Z,80.70
2022-08-26T05:00:00.711Z,81.09
2022-08-26T05:02:27.995Z,80.93
2022-08-26T05:04:55.105Z,80.68
2022-08-26T05:07:21.899Z,80.54
2022-08-26T05:09:49.246Z,80.10
2022-08-26T05:12:16.279Z,80.00
2022-08-26T05:14:43.367Z,80.18
2022-08-26T05:17:10.276Z,79.32
2022-08-26T05:19:42.934Z,79.76
2022-08-26T05:22:10.182Z,79.65
2022-08-26T05:24:41.123Z,79.24
2022-08-26T05:27:11.856Z,79.11
2022-08-26T05:29:40.697Z,79.24
2022-08-26T05:32:07.656Z,79.00
2022-08-26T05:34:34.687Z,78.76
2022-08-26T05:37:01.811Z,79.05
2022-08-26T05:39:29.296Z,78.76
2022-08-26T05:41:56.509Z,78.54
2022-08-26T05:44:23.883Z,78.75
2022-08-26T05:46:51.851Z,78.37
2022-08-26T05:49:19.397Z,78.55
2022-08-26T05:51:47.949Z,78.36
2022-08-26T05:54:22.121Z,77.70
2022-08-26T05:56:51.852Z,78.04
2022-08-26T05:59:24.100Z,77.91
2022-08-26T06:01:54.968Z,78.00
2022-08-26T06:04:24.990Z,77.75
2022-08-26T06:06:54.489Z,77.72
2022-08-26T06:09:21.468Z,77.72
2022-08-26T06:11:48.667Z,77.35
2022-08-26T06:14:17.245Z,77.79
2022-08-26T06:16:45.369Z,77.65
2022-08-26T06:19:15.791Z,77.20
2022-08-26T06:21:47.821Z,77.65
2022-08-26T06:24:39.581Z,77.32
2022-08-26T06:27:09.917Z,77.74
2022-08-26T06:29:38.904Z,77.36
2022-08-26T06:32:06.927Z,77.32
2022-08-26T06:34:36.213Z,76.98
2022-08-26T06:37:03.701Z,77.08
2022-08-26T06:39:31.902Z,76.59
2022-08-26T06:42:00.820Z,76.49
2022-08-26T06:44:30.621Z,76.64
2022-08-26T06:46:59.443Z,76.39
2022-08-26T06:49:27.606Z,76.49
2022-08-26T06:51:59.510Z,76.48
2022-08-26T06:54:31.568Z,76.82
2022-08-26T06:56:59.590Z,76.90
2022-08-26T06:59:27.024Z,76.54
2022-08-26T07:01:54.685Z,76.21
2022-08-26T07:04:24.494Z,75.49
2022-08-26T07:06:54.172Z,75.52
2022-08-26T07:09:26.054Z,75.30
2022-08-26T07:11:56.146Z,74.72
2022-08-26T07:14:24.411Z,74.42
2022-08-26T07:16:52.040Z,74.73
2022-08-26T07:19:30.354Z,74.94
2022-08-26T07:22:04.066Z,74.66
2022-08-26T07:24:38.460Z,74.31
2022-08-26T07:27:10.347Z,73.87
2022-08-26T07:29:40.263Z,74.01
2022-08-26T07:32:08.325Z,74.10
2022-08-26T07:34:37.720Z,74.22
2022-08-26T07:37:06.038Z,74.10
2022-08-26T07:39:36.319Z,73.42
2022-08-26T07:42:08.067Z,73.06
2022-08-26T07:44:37.724Z,72.74
2022-08-26T07:47:10.173Z,72.96
2022-08-26T07:49:38.652Z,73.30
2022-08-26T07:52:06.675Z,73.07
2022-08-26T07:54:33.622Z,72.56
2022-08-26T07:57:01.568Z,73.08
2022-08-26T07:59:32.055Z,72.89
2022-08-26T08:02:00.109Z,72.47
2022-08-26T08:04:27.591Z,72.37
2022-08-26T08:06:56.039Z,72.18
2022-08-26T08:09:24.128Z,72.23
2022-08-26T08:11:53.021Z,72.61
2022-08-26T08:14:20.506Z,72.82
2022-08-26T08:16:54.760Z,72.30
2022-08-26T08:19:23.814Z,72.09
2022-08-26T08:21:52.078Z,71.58
2022-08-26T08:24:19.151Z,71.32
2022-08-26T08:26:46.226Z,70.76
2022-08-26T08:29:13.728Z,70.16
2022-08-26T08:31:58.231Z,69.54
2022-08-26T08:34:28.843Z,69.34
2022-08-26T08:36:57.472Z,68.48
2022-08-26T08:39:26.319Z,68.14
2022-08-26T08:42:35.114Z,67.45
2022-08-26T08:45:24.351Z,66.63
2022-08-26T08:48:04.357Z,66.82
2022-08-26T08:50:45.791Z,66.08
2022-08-26T08:53:17.705Z,65.51
2022-08-26T08:56:06.876Z,66.08
2022-08-26T08:59:00.765Z,66.51
2022-08-26T09:01:39.774Z,66.14
2022-08-26T09:04:25.226Z,66.62
2022-08-26T09:09:39.199Z,65.76
2022-08-26T09:12:17.199Z,65.02
2022-08-26T09:14:51.112Z,64.53
2022-08-26T09:18:23.245Z,65.01
2022-08-26T09:21:05.250Z,63.14
2022-08-26T09:23:37.546Z,63.18
2022-08-26T09:26:19.881Z,62.17
2022-08-26T09:29:08.946Z,61.28
2022-08-26T09:31:39.210Z,61.63
2022-08-26T09:34:23.105Z,60.25
2022-08-26T09:36:59.519Z,61.98
2022-08-26T09:39:39.589Z,61.72
2022-08-26T09:42:09.433Z,60.84
2022-08-26T09:45:08.383Z,61.01
2022-08-26T09:47:45.756Z,60.46
2022-08-26T09:50:30.991Z,61.11
2022-08-26T09:53:36.651Z,60.56
2022-08-26T09:56:21.761Z,60.72
2022-08-26T09:58:50.722Z,60.60
2022-08-26T10:01:23.672Z,59.30
2022-08-26T10:03:51.971Z,59.02
2022-08-26T10:06:20.880Z,58.83
2022-08-26T10:08:57.425Z,58.56
2022-08-26T10:11:30.522Z,58.07
2022-08-26T10:14:07.933Z,58.71
2022-08-26T10:17:14.651Z,56.32
2022-08-26T10:19:56.074Z,56.09
2022-08-26T10:22:50.082Z,55.17
2022-08-26T10:25:27.636Z,56.23
2022-08-26T10:28:35.677Z,56.27
2022-08-26T10:31:27.374Z,55.59
2022-08-26T10:33:58.897Z,55.38
2022-08-26T10:39:58.851Z,55.98
2022-08-26T10:43:07.047Z,55.55
2022-08-26T10:45:45.001Z,55.99
2022-08-26T10:48:36.155Z,55.35
2022-08-26T10:51:04.996Z,55.65
2022-08-26T10:53:57.744Z,55.95
2022-08-26T10:56:53.525Z,56.48
2022-08-26T10:59:53.587Z,56.22
2022-08-26T11:02:39.592Z,56.24
2022-08-26T11:05:22.547Z,55.89
2022-08-26T11:07:56.050Z,55.60
2022-08-26T11:10:23.885Z,55.76
2022-08-26T11:13:03.735Z,55.35
2022-08-26T11:15:31.169Z,55.64
2022-08-26T11:18:04.110Z,54.81
2022-08-26T11:20:42.338Z,55.39
2022-08-26T11:23:12.363Z,55.98
2022-08-26T11:26:37.682Z,55.62
2022-08-26T11:29:04.679Z,55.58
2022-08-26T11:31:39.733Z,54.79
2022-08-26T11:34:13.129Z,54.85
2022-08-26T11:36:54.364Z,54.76
2022-08-26T11:39:36.570Z,55.21
2022-08-26T11:42:27.660Z,53.58
2022-08-26T11:44:58.156Z,53.79
2022-08-26T11:47:30.143Z,53.62
2022-08-26T11:50:19.777Z,53.77
2022-08-26T11:53:01.695Z,54.44
2022-08-26T11:55:32.346Z,53.19
2022-08-26T11:58:04.801Z,53.80
2022-08-26T12:00:58.645Z,53.77
2022-08-26T12:03:47.134Z,54.27
2022-08-26T12:06:30.464Z,53.88
2022-08-26T12:09:03.429Z,54.05
2022-08-26T12:11:37.069Z,53.76
2022-08-26T12:14:27.883Z,53.71
2022-08-26T12:16:55.121Z,54.29
2022-08-26T12:19:32.907Z,53.86
2022-08-26T12:22:34.592Z,53.49
2022-08-26T12:25:08.496Z,53.33
2022-08-26T12:27:45.409Z,53.47
2022-08-26T12:30:20.120Z,53.65
2022-08-26T12:33:03.171Z,52.88
2022-08-26T12:35:48.477Z,52.45
2022-08-26T12:38:20.133Z,52.01
2022-08-26T12:40:50.288Z,52.01
2022-08-26T12:43:41.050Z,52.33
2022-08-26T12:46:15.913Z,52.33
2022-08-26T12:48:47.555Z,52.20
2022-08-26T12:51:26.547Z,52.55
2022-08-26T12:53:54.378Z,51.31
2022-08-26T12:56:39.660Z,51.95
2022-08-26T12:59:18.083Z,52.58
2022-08-26T13:01:46.803Z,53.80
2022-08-26T13:04:38.364Z,53.61
2022-08-26T13:07:23.319Z,52.96
2022-08-26T13:09:57.450Z,53.33
2022-08-26T13:12:35.490Z,54.34
2022-08-26T13:15:05.764Z,52.68
2022-08-26T13:17:34.996Z,54.25
2022-08-26T13:20:04.077Z,53.28
2022-08-26T13:22:31.879Z,53.58
2022-08-26T13:24:59.350Z,52.80
2022-08-26T13:27:27.510Z,52.96
2022-08-26T13:29:57.669Z,51.31
2022-08-26T13:32:27.244Z,51.47
2022-08-26T13:34:57.496Z,51.42
2022-08-26T13:37:35.184Z,51.95
2022-08-26T13:40:06.715Z,51.33
2022-08-26T13:42:34.479Z,50.39
2022-08-26T13:45:02.288Z,50.45
2022-08-26T13:47:29.826Z,49.50
2022-08-26T13:49:56.775Z,50.09
2022-08-26T13:52:30.235Z,51.17
2022-08-26T13:55:00.621Z,50.73
2022-08-26T13:57:30.122Z,50.81
2022-08-26T13:59:59.146Z,51.51
2022-08-26T14:02:27.992Z,51.55
2022-08-26T14:04:55.973Z,51.67
2022-08-26T14:07:23.070Z,50.85
2022-08-26T14:09:50.509Z,50.58
2022-08-26T14:12:17.490Z,49.43
2022-08-26T14:14:44.380Z,49.61
2022-08-26T14:17:18.753Z,50.85
2022-08-26T14:19:48.584Z,48.58
2022-08-26T14:22:19.085Z,49.27
2022-08-26T14:24:46.162Z,47.45
2022-08-26T14:27:13.666Z,47.90
2022-08-26T14:29:41.304Z,47.00
2022-08-26T14:32:22.953Z,47.34
2022-08-26T14:34:50.786Z,48.11
2022-08-26T14:37:19.091Z,48.26
2022-08-26T14:39:47.059Z,48.72
2022-08-26T14:42:21.265Z,47.55
2022-08-26T14:44:56.419Z,48.18
2022-08-26T14:47:23.728Z,47.98
2022-08-26T14:49:51.654Z,49.07
2022-08-26T14:52:18.827Z,48.82
2022-08-26T14:54:45.939Z,49.52
2022-08-26T14:57:15.349Z,49.47
2022-08-26T14:59:50.199Z,49.46
2022-08-26T15:02:27.700Z,50.77
2022-08-26T15:05:02.154Z,51.75
2022-08-26T15:07:29.486Z,51.57
2022-08-26T15:09:56.447Z,52.78
2022-08-26T15:12:23.347Z,53.25
2022-08-26T15:14:50.379Z,54.00
2022-08-26T15:17:17.623Z,54.23
2022-08-26T15:19:44.486Z,54.43
2022-08-26T15:22:11.527Z,54.13
2022-08-26T15:24:38.497Z,54.39
2022-08-26T15:27:05.514Z,55.00
2022-08-26T15:29:33.199Z,55.27
2022-08-26T15:32:04.608Z,55.45
2022-08-26T15:34:32.043Z,55.78
2022-08-26T15:36:59.127Z,55.94
2022-08-26T15:39:25.983Z,56.77
2022-08-26T15:41:52.938Z,58.95
2022-08-26T15:44:20.112Z,61.68
2022-08-26T15:46:50.092Z,67.65
2022-08-26T15:49:18.666Z,69.80
2022-08-26T15:51:48.233Z,75.90
2022-08-26T15:54:19.604Z,68.61
2022-08-26T15:56:50.576Z,71.35
2022-08-26T15:59:19.282Z,75.13
2022-08-26T16:01:46.592Z,76.92
2022-08-26T16:04:14.244Z,77.00
2022-08-26T16:06:42.519Z,78.49
2022-08-26T16:09:10.362Z,81.36
2022-08-26T16:11:40.968Z,79.99
2022-08-26T16:14:08.766Z,80.29
2022-08-26T16:16:40.901Z,78.60
2022-08-26T16:19:09.043Z,80.21
2022-08-26T16:21:36.248Z,79.88
2022-08-26T16:24:04.311Z,78.64
2022-08-26T16:26:34.887Z,75.79
2022-08-26T16:29:06.443Z,77.43
2022-08-26T16:31:34.153Z,77.62
2022-08-26T16:34:01.384Z,79.19
2022-08-26T16:36:28.258Z,78.20
2022-08-26T16:38:56.645Z,78.17
2022-08-26T16:41:27.162Z,78.84
2022-08-26T16:43:55.844Z,79.52
2022-08-26T16:46:26.228Z,79.46
2022-08-26T16:48:55.251Z,79.43
2022-08-26T16:51:27.170Z,80.33
2022-08-26T16:53:56.580Z,78.72
2022-08-26T16:56:34.009Z,79.81
2022-08-26T16:59:05.244Z,78.94
2022-08-26T17:01:32.482Z,78.86
2022-08-26T17:03:59.727Z,79.55
2022-08-26T17:06:26.775Z,79.44
2022-08-26T17:08:53.635Z,80.53
2022-08-26T17:11:20.683Z,80.06
2022-08-26T17:13:47.643Z,79.10
2022-08-26T17:16:15.663Z,79.01
2022-08-26T17:18:42.874Z,80.14
2022-08-26T17:21:13.063Z,80.65
2022-08-26T17:23:42.473Z,81.89
2022-08-26T17:26:12.239Z,80.14
2022-08-26T17:28:40.263Z,80.81
2022-08-26T17:31:10.174Z,81.08
2022-08-26T17:33:38.361Z,80.88
2022-08-26T17:36:07.866Z,80.66
2022-08-26T17:38:36.546Z,80.40
2022-08-26T17:41:12.249Z,82.10
2022-08-26T17:43:40.347Z,82.74
2022-08-26T17:46:12.344Z,83.37
2022-08-26T17:48:40.703Z,84.62
2022-08-26T17:51:12.575Z,85.34
2022-08-26T17:53:41.282Z,83.70
2022-08-26T17:56:11.072Z,84.44
2022-08-26T17:58:38.857Z,84.17
2022-08-26T18:01:07.064Z,83.76
2022-08-26T18:03:35.274Z,82.79
2022-08-26T18:06:03.707Z,82.62
2022-08-26T18:08:30.762Z,84.88
2022-08-26T18:10:57.700Z,85.08
2022-08-26T18:13:25.139Z,85.36
2022-08-26T18:15:52.230Z,83.90
2022-08-26T18:18:19.048Z,82.95
2022-08-26T18:20:45.928Z,82.54
2022-08-26T18:23:18.908Z,83.05
2022-08-26T18:25:45.802Z,83.06
2022-08-26T18:28:12.866Z,83.76
2022-08-26T18:30:43.000Z,84.07
2022-08-26T18:33:11.403Z,85.31
2022-08-26T18:35:43.802Z,83.91
2022-08-26T18:38:13.960Z,83.97
2022-08-26T18:40:44.938Z,84.11
2022-08-26T18:43:12.258Z,85.07
2022-08-26T18:45:39.142Z,85.30
2022-08-26T18:48:06.142Z,84.96
2022-08-26T18:50:33.439Z,85.51
2022-08-26T18:53:02.461Z,83.70
2022-08-26T18:55:29.361Z,83.67
2022-08-26T18:57:56.443Z,83.75
2022-08-26T19:00:23.907Z,83.43
2022-08-26T19:02:51.890Z,83.49
2022-08-26T19:05:19.766Z,83.91
2022-08-26T19:07:47.886Z,84.01
2022-08-26T19:10:15.310Z,84.21
2022-08-26T19:12:42.576Z,83.22
2022-08-26T19:15:11.583Z,83.56
2022-08-26T19:17:38.478Z,84.32
2022-08-26T19:20:06.189Z,83.14
2022-08-26T19:22:33.565Z,82.76
2022-08-26T19:25:01.299Z,82.28
2022-08-26T19:27:28.356Z,81.81
2022-08-26T19:29:57.334Z,82.92
2022-08-26T19:32:25.297Z,82.74
2022-08-26T19:34:53.022Z,83.16
2022-08-26T19:37:20.971Z,84.02
2022-08-26T19:39:48.306Z,83.33
2022-08-26T19:42:16.558Z,83.36
2022-08-26T19:45:02.999Z,83.11
2022-08-26T19:47:30.217Z,83.03
2022-08-26T19:49:57.654Z,82.91
2022-08-26T19:52:29.909Z,83.68
2022-08-26T19:54:58.593Z,83.07
2022-08-26T19:57:25.739Z,83.58
2022-08-26T19:59:52.579Z,83.94
2022-08-26T20:02:20.230Z,83.63
2022-08-26T20:04:47.417Z,81.54
2022-08-26T20:07:18.142Z,82.00
2022-08-26T20:09:48.479Z,82.75
2022-08-26T20:12:17.329Z,81.98
2022-08-26T20:14:44.278Z,81.73
2022-08-26T20:17:12.711Z,81.53
2022-08-26T20:19:58.060Z,81.55
2022-08-26T20:22:25.509Z,81.74
2022-08-26T20:24:52.724Z,81.41
2022-08-26T20:27:19.806Z,81.49
2022-08-26T20:29:47.387Z,81.06
2022-08-26T20:32:15.410Z,81.30
2022-08-26T20:34:42.839Z,80.74
2022-08-26T20:37:11.205Z,80.59
2022-08-26T20:39:38.294Z,81.22
2022-08-26T20:42:06.835Z,81.84
2022-08-26T20:44:55.002Z,81.03
2022-08-26T20:47:22.624Z,81.59
2022-08-26T20:49:52.548Z,81.42
2022-08-26T20:52:20.364Z,82.29
2022-08-26T20:54:47.278Z,80.94
2022-08-26T20:57:14.752Z,81.91
2022-08-26T20:59:41.957Z,81.03
2022-08-26T21:02:09.190Z,81.33
2022-08-26T21:04:36.321Z,79.79
2022-08-26T21:07:03.210Z,80.25
2022-08-26T21:09:31.325Z,79.98
2022-08-26T21:11:59.223Z,80.23
2022-08-26T21:14:26.170Z,80.16
2022-08-26T21:16:53.605Z,79.57
2022-08-26T21:19:20.804Z,79.89
2022-08-26T21:21:48.793Z,80.26
2022-08-26T21:24:16.460Z,80.63
2022-08-26T21:26:44.364Z,81.16
2022-08-26T21:29:13.516Z,80.37
2022-08-26T21:31:46.026Z,80.53
2022-08-26T21:34:19.038Z,80.04
2022-08-26T21:36:48.364Z,79.84
2022-08-26T21:39:16.776Z,79.93
2022-08-26T21:41:45.686Z,79.48
2022-08-26T21:44:15.014Z,79.23
2022-08-26T21:46:43.981Z,79.85
2022-08-26T21:49:15.817Z,80.18
2022-08-26T21:51:46.571Z,79.55
2022-08-26T21:54:15.208Z,80.23
2022-08-26T21:56:46.784Z,79.94
2022-08-26T21:59:17.181Z,80.08
2022-08-26T22:01:44.261Z,79.60
2022-08-26T22:04:11.183Z,79.96
2022-08-26T22:06:46.175Z,80.01
2022-08-26T22:09:16.735Z,80.00
2022-08-26T22:11:43.896Z,79.48
2022-08-26T22:14:11.706Z,80.20
2022-08-26T22:16:39.332Z,80.40
2022-08-26T22:19:06.825Z,80.50
2022-08-26T22:21:35.691Z,80.65
2022-08-26T22:24:04.702Z,80.33
2022-08-26T22:26:33.994Z,80.25
2022-08-26T22:29:02.117Z,79.85
2022-08-26T22:31:37.318Z,80.09
2022-08-26T22:34:13.268Z,80.01
2022-08-26T22:36:44.641Z,80.32
2022-08-26T22:39:19.441Z,80.12
2022-08-26T22:41:48.450Z,80.00
2022-08-26T22:44:17.545Z,79.78
2022-08-26T22:46:46.081Z,79.57
2022-08-26T22:49:17.403Z,80.00
2022-08-26T22:51:46.450Z,80.20
2022-08-26T22:54:14.736Z,80.12
2022-08-26T22:56:44.019Z,79.97
2022-08-26T22:59:12.475Z,79.82
2022-08-26T23:01:43.049Z,79.91
2022-08-26T23:04:11.122Z,79.44
2022-08-26T23:06:43.292Z,79.98
2022-08-26T23:09:18.214Z,79.46
2022-08-26T23:11:47.777Z,79.55
2022-08-26T23:14:15.552Z,79.79
2022-08-26T23:16:43.131Z,79.84
2022-08-26T23:19:13.556Z,80.01
2022-08-26T23:21:40.878Z,80.07
2022-08-26T23:24:09.398Z,79.95
2022-08-26T23:26:38.020Z,80.28
2022-08-26T23:29:07.265Z,79.79
2022-08-26T23:31:36.131Z,79.62
2022-08-26T23:34:21.634Z,79.74
2022-08-26T23:36:49.199Z,80.25
2022-08-26T23:39:16.842Z,79.95
2022-08-26T23:41:43.766Z,80.34
2022-08-26T23:44:11.602Z,80.40
2022-08-26T23:46:38.864Z,79.92
2022-08-26T23:49:05.859Z,79.95
2022-08-26T23:51:51.369Z,80.64
2022-08-26T23:54:19.565Z,80.49
2022-08-26T23:56:46.807Z,80.34
2022-08-26T23:59:13.743Z,80.48
